首页
METAR-TAF:

METAR-TAF

机场 :

帕兰加国际机场

帕兰加, 立陶宛

纬度: 55-55-12N, 经度: 021-03E, 海拔: 10米

当前天气观测

该预报发布于21分钟前的01:20 UTC
风速3节,风向东南
温度 11°C
湿度 94%
气压 1014 hPa
能见度10公里或以上

METAR: EYPA 200120Z AUTO 14003KT 9999 BKN068/// 11/10 Q1014

时间: 04:41 (01:41 UTC)

预报

该预报发布于2小时和40分钟前的23:01 UTC
预报有效从20日的 00点(UTC)到 20日的 24点(UTC)
风速6节,风向东南
能見度: 5000
散云层高于500英尺
轻雾
几率 40%
在之间 TE和MP点(UTC)
能見度: 0600
层高于200英尺
成为
从 20日的 09点(UTC)到 20日的 10点(UTC)
能見度: 9000
散云层高于1500英尺
成为
从 20日的 15点(UTC)到 20日的 16点(UTC)
散云层高于500英尺
短暂存在
从 20日的 21点(UTC)到 20日的 24点(UTC)
能見度: 1500
多云层高于300英尺
轻雾

TAF: EYPA 192301Z 2000/2024 14006KT 5000 BR SCT005 PROB40 TEMP0 2000/2006 0600 FG VV002 BECMG 2009/2010 9000 SCT015 BECMG 2015/2016 SCT005 TEMPO 2021/2024 1500 BR BKN003

超过4000个机场的气象观测和天气预报(METAR&TAF报告)。

可查询的气象台以黄色和红色小点在地图上表示。

将鼠标移到小点上方,可查看气象台名称。

然后点击查看天气观测和预报。

如需切换地图:点击带黑十字的绿色按钮放大地图;点击带横线的绿色按钮缩小地图;或者点击绿色箭头查看邻近地区的地图。


METAR-TAF: